Time;durP1;ratioP1;P1;durP2;ratioP2;P2;SDS_P1;SDS_P2;PMS_P1;PMS_P2;Temp;Humidity;BMP_temperature;BMP_pressure;BME280_temperature;BME280_humidity;BME280_pressure;Samples;Min_cycle;Max_cycle;Signal;HPM_P1;HPM_P2
2022/02/27 00:02:15;;;;;;;6.63;3.08;;;;;;;;;;5011809;28;20034;-77
2022/02/27 00:04:41;;;;;;;4.82;2.45;;;;;;;;;;5011972;28;20109;-77
2022/02/27 00:07:07;;;;;;;5.60;3.08;;;;;;;;;;5012179;28;20106;-77
2022/02/27 00:09:33;;;;;;;4.22;2.40;;;;;;;;;;5011855;28;20116;-78
2022/02/27 00:11:59;;;;;;;5.68;2.60;;;;;;;;;;5012283;28;20030;-79
2022/02/27 00:14:25;;;;;;;6.93;2.53;;;;;;;;;;5011786;28;20029;-78
2022/02/27 00:16:51;;;;;;;5.13;2.30;;;;;;;;;;5010315;28;20061;-78
2022/02/27 00:19:17;;;;;;;6.40;2.63;;;;;;;;;;5010990;28;20038;-77
2022/02/27 00:21:43;;;;;;;5.07;2.35;;;;;;;;;;5010260;28;20026;-79
2022/02/27 00:24:10;;;;;;;3.92;2.17;;;;;;;;;;5011896;28;20033;-78
2022/02/27 00:26:36;;;;;;;5.72;2.70;;;;;;;;;;5011544;28;20484;-80
2022/02/27 00:29:02;;;;;;;5.20;2.42;;;;;;;;;;5011728;28;20061;-78
2022/02/27 00:31:28;;;;;;;6.75;2.88;;;;;;;;;;5011492;28;20022;-77
2022/02/27 00:33:54;;;;;;;4.40;2.25;;;;;;;;;;5011441;28;20056;-78
2022/02/27 00:36:20;;;;;;;6.68;2.90;;;;;;;;;;5011580;28;20167;-78
2022/02/27 00:38:46;;;;;;;7.65;2.70;;;;;;;;;;5011908;28;20069;-79
2022/02/27 00:41:12;;;;;;;7.15;3.17;;;;;;;;;;5011876;28;20022;-77
2022/02/27 00:43:38;;;;;;;5.78;2.47;;;;;;;;;;5011384;28;20033;-78
2022/02/27 00:46:06;;;;;;;5.57;2.45;;;;;;;;;;5011516;28;20022;-78
2022/02/27 00:48:32;;;;;;;5.78;2.55;;;;;;;;;;5010827;28;20037;-78
2022/02/27 00:50:58;;;;;;;7.45;3.17;;;;;;;;;;5011572;28;20478;-78
2022/02/27 00:53:24;;;;;;;4.25;2.38;;;;;;;;;;5011295;28;20398;-78
2022/02/27 00:55:50;;;;;;;6.90;2.65;;;;;;;;;;5011541;28;20520;-78
2022/02/27 00:58:16;;;;;;;5.63;2.95;;;;;;;;;;5011696;28;20084;-77
2022/02/27 01:00:42;;;;;;;7.90;3.17;;;;;;;;;;5011398;28;20033;-79
2022/02/27 01:03:08;;;;;;;4.85;2.42;;;;;;;;;;5009900;28;20054;-78
2022/02/27 01:05:34;;;;;;;4.60;2.47;;;;;;;;;;5009839;28;20026;-78
2022/02/27 01:08:00;;;;;;;6.55;3.35;;;;;;;;;;5011326;28;20022;-77
2022/02/27 01:10:26;;;;;;;6.13;2.70;;;;;;;;;;5012042;28;20033;-77
2022/02/27 01:12:52;;;;;;;5.03;3.10;;;;;;;;;;5014133;28;20026;-77
2022/02/27 01:15:18;;;;;;;5.75;2.65;;;;;;;;;;5013919;28;20040;-77
2022/02/27 01:17:44;;;;;;;6.05;2.28;;;;;;;;;;5015183;28;20033;-78
2022/02/27 01:20:11;;;;;;;6.50;2.47;;;;;;;;;;5013998;28;20033;-77
2022/02/27 01:22:37;;;;;;;6.40;2.88;;;;;;;;;;5015038;28;20840;-77
2022/02/27 01:25:04;;;;;;;6.35;3.30;;;;;;;;;;5015201;28;20030;-80
2022/02/27 01:27:30;;;;;;;5.07;2.22;;;;;;;;;;5014926;28;20057;-78
2022/02/27 01:29:57;;;;;;;5.32;2.83;;;;;;;;;;5015032;28;20038;-78
2022/02/27 01:32:23;;;;;;;6.07;2.67;;;;;;;;;;5014485;28;20429;-78
2022/02/27 01:34:49;;;;;;;5.35;3.00;;;;;;;;;;5014997;28;20406;-78
2022/02/27 01:37:16;;;;;;;5.45;3.00;;;;;;;;;;5014004;28;20022;-79
2022/02/27 01:39:42;;;;;;;6.35;2.50;;;;;;;;;;5014626;28;20037;-78
2022/02/27 01:42:11;;;;;;;5.22;2.97;;;;;;;;;;5014786;28;20033;-80
2022/02/27 01:44:38;;;;;;;5.35;2.40;;;;;;;;;;5014620;28;20398;-79
2022/02/27 01:47:11;;;;;;;3.67;2.72;;;;;;;;;;5014407;28;20026;-80
2022/02/27 01:49:37;;;;;;;7.20;3.17;;;;;;;;;;5013145;28;20045;-78
2022/02/27 01:52:04;;;;;;;5.68;2.85;;;;;;;;;;5014458;28;20029;-80
2022/02/27 01:54:30;;;;;;;6.55;2.92;;;;;;;;;;5013137;28;20057;-78
2022/02/27 01:56:57;;;;;;;4.85;2.60;;;;;;;;;;5014577;28;20022;-78
2022/02/27 01:59:23;;;;;;;6.88;3.08;;;;;;;;;;5014430;28;20075;-77
2022/02/27 02:01:50;;;;;;;7.55;2.80;;;;;;;;;;5014658;28;20026;-78
2022/02/27 02:04:16;;;;;;;5.00;2.80;;;;;;;;;;5014782;28;20025;-79
2022/02/27 02:06:42;;;;;;;5.50;2.97;;;;;;;;;;5014260;28;20022;-78
2022/02/27 02:09:08;;;;;;;5.75;2.88;;;;;;;;;;5014202;28;20045;-79
2022/02/27 02:11:35;;;;;;;5.95;2.45;;;;;;;;;;5014089;28;20034;-78
2022/02/27 02:14:02;;;;;;;4.82;2.78;;;;;;;;;;5014275;28;20049;-79
2022/02/27 02:16:44;;;;;;;5.75;2.80;;;;;;;;;;5013719;28;20033;-78
2022/02/27 02:19:10;;;;;;;5.72;2.85;;;;;;;;;;5014191;28;20018;-77
2022/02/27 02:21:37;;;;;;;5.57;2.92;;;;;;;;;;5013809;28;20026;-78
2022/02/27 02:24:03;;;;;;;6.95;3.10;;;;;;;;;;5014088;28;20057;-78
2022/02/27 02:26:30;;;;;;;5.93;2.35;;;;;;;;;;5013875;28;20532;-78
2022/02/27 02:28:55;;;;;;;7.15;2.80;;;;;;;;;;5013700;28;20042;-78
2022/02/27 02:31:22;;;;;;;5.35;2.60;;;;;;;;;;5013693;28;20108;-78
2022/02/27 02:33:48;;;;;;;6.18;2.38;;;;;;;;;;5014063;28;20028;-78
2022/02/27 02:36:14;;;;;;;5.75;2.53;;;;;;;;;;5014230;28;20105;-79
2022/02/27 02:38:40;;;;;;;5.00;2.38;;;;;;;;;;5013518;28;20037;-78
2022/02/27 02:41:06;;;;;;;6.55;2.85;;;;;;;;;;5012503;28;20117;-78
2022/02/27 02:43:32;;;;;;;5.10;2.85;;;;;;;;;;5013028;28;20104;-78
2022/02/27 02:45:59;;;;;;;5.80;3.00;;;;;;;;;;5013788;28;20046;-78
2022/02/27 02:48:25;;;;;;;6.63;2.53;;;;;;;;;;5013334;28;20536;-77
2022/02/27 02:50:51;;;;;;;5.88;2.60;;;;;;;;;;5013540;28;20038;-78
2022/02/27 02:53:17;;;;;;;4.28;2.45;;;;;;;;;;5013414;28;20073;-77
2022/02/27 02:55:43;;;;;;;5.13;3.15;;;;;;;;;;5014117;28;20413;-78
2022/02/27 02:58:09;;;;;;;5.55;2.75;;;;;;;;;;5011927;28;20030;-77
2022/02/27 03:00:35;;;;;;;5.28;2.40;;;;;;;;;;5013233;28;20121;-77
2022/02/27 03:03:01;;;;;;;4.15;2.45;;;;;;;;;;5013362;28;20048;-77
2022/02/27 03:05:27;;;;;;;5.80;2.90;;;;;;;;;;5012522;28;20018;-78
2022/02/27 03:07:54;;;;;;;5.38;2.40;;;;;;;;;;5013166;28;20099;-78
2022/02/27 03:10:19;;;;;;;7.68;2.75;;;;;;;;;;5012973;28;20450;-79
2022/02/27 03:12:45;;;;;;;6.50;2.70;;;;;;;;;;5013496;28;20072;-78
2022/02/27 03:15:11;;;;;;;4.43;2.58;;;;;;;;;;5013145;28;20053;-77
2022/02/27 03:17:37;;;;;;;4.22;2.33;;;;;;;;;;5012327;28;20501;-78
2022/02/27 03:20:04;;;;;;;5.28;2.47;;;;;;;;;;5012944;28;20086;-78
2022/02/27 03:22:30;;;;;;;5.15;2.63;;;;;;;;;;5012754;28;20062;-78
2022/02/27 03:24:56;;;;;;;4.68;2.47;;;;;;;;;;5013004;28;20021;-79
2022/02/27 03:27:22;;;;;;;5.80;2.72;;;;;;;;;;5012657;28;20084;-78
2022/02/27 03:29:48;;;;;;;5.72;2.33;;;;;;;;;;5012860;28;20497;-79
2022/02/27 03:32:14;;;;;;;4.07;2.28;;;;;;;;;;5012366;28;20029;-78
2022/02/27 03:34:40;;;;;;;7.10;2.60;;;;;;;;;;5011966;28;20026;-79
2022/02/27 03:37:06;;;;;;;7.35;2.72;;;;;;;;;;5012777;28;20030;-80
2022/02/27 03:39:32;;;;;;;6.15;2.70;;;;;;;;;;5012018;28;20061;-80
2022/02/27 03:41:58;;;;;;;4.35;2.33;;;;;;;;;;5012735;28;20076;-79
2022/02/27 03:44:24;;;;;;;3.90;2.15;;;;;;;;;;5012362;28;20030;-77
2022/02/27 03:46:50;;;;;;;5.85;2.40;;;;;;;;;;5012515;28;20072;-77
2022/02/27 03:49:16;;;;;;;5.30;2.40;;;;;;;;;;5012554;28;20034;-78
2022/02/27 03:51:42;;;;;;;6.40;2.88;;;;;;;;;;5012751;28;20026;-78
2022/02/27 03:54:08;;;;;;;5.20;2.53;;;;;;;;;;5012216;28;20065;-78
2022/02/27 03:56:34;;;;;;;6.80;2.30;;;;;;;;;;5012184;28;20026;-79
2022/02/27 03:59:00;;;;;;;6.07;2.70;;;;;;;;;;5011066;28;20018;-78
2022/02/27 04:01:26;;;;;;;6.03;2.42;;;;;;;;;;5012021;28;20036;-78
2022/02/27 04:03:52;;;;;;;4.45;2.33;;;;;;;;;;5012038;28;20025;-78
2022/02/27 04:06:18;;;;;;;5.30;2.55;;;;;;;;;;5012074;28;20393;-78
2022/02/27 04:08:44;;;;;;;4.85;2.28;;;;;;;;;;5012423;28;20029;-78
2022/02/27 04:11:10;;;;;;;5.13;2.42;;;;;;;;;;5011684;28;20022;-78
2022/02/27 04:13:36;;;;;;;6.70;2.70;;;;;;;;;;5011559;28;20033;-77
2022/02/27 04:16:02;;;;;;;3.53;2.25;;;;;;;;;;5012025;28;20025;-78
2022/02/27 04:18:28;;;;;;;5.40;2.42;;;;;;;;;;5011691;28;20072;-78
2022/02/27 04:20:54;;;;;;;4.80;2.47;;;;;;;;;;5011963;28;20034;-77
2022/02/27 04:23:20;;;;;;;5.75;2.70;;;;;;;;;;5011658;28;20022;-78
2022/02/27 04:25:46;;;;;;;5.72;2.92;;;;;;;;;;5011039;28;20030;-78
2022/02/27 04:28:12;;;;;;;5.80;2.53;;;;;;;;;;5011986;28;20026;-77
2022/02/27 04:30:38;;;;;;;4.13;2.05;;;;;;;;;;5011858;28;20401;-77
2022/02/27 04:33:04;;;;;;;4.80;2.45;;;;;;;;;;5011736;28;20057;-77
2022/02/27 04:35:31;;;;;;;6.43;3.08;;;;;;;;;;5011747;28;20109;-78
2022/02/27 04:37:57;;;;;;;4.88;2.28;;;;;;;;;;5011217;28;20068;-78
2022/02/27 04:40:23;;;;;;;6.90;2.78;;;;;;;;;;5011449;28;20034;-78
2022/02/27 04:42:49;;;;;;;6.50;2.80;;;;;;;;;;5011418;28;20026;-76
2022/02/27 04:45:15;;;;;;;5.03;2.28;;;;;;;;;;5010765;28;20442;-78
2022/02/27 04:47:41;;;;;;;6.43;2.40;;;;;;;;;;5011338;28;20096;-78
2022/02/27 04:50:07;;;;;;;4.38;2.33;;;;;;;;;;5011514;28;20386;-78
2022/02/27 04:52:33;;;;;;;6.28;2.50;;;;;;;;;;5011622;28;20466;-78
2022/02/27 04:54:59;;;;;;;5.68;2.08;;;;;;;;;;5011373;28;20106;-78
2022/02/27 04:57:25;;;;;;;4.90;2.30;;;;;;;;;;5011600;28;20080;-78
2022/02/27 04:59:51;;;;;;;4.13;2.25;;;;;;;;;;5010833;28;20053;-78
2022/02/27 05:02:17;;;;;;;6.72;2.50;;;;;;;;;;5011849;28;20018;-79
2022/02/27 05:04:43;;;;;;;5.35;2.80;;;;;;;;;;5011505;28;20551;-79
2022/02/27 05:07:09;;;;;;;5.10;2.60;;;;;;;;;;5011398;28;20021;-78
2022/02/27 05:09:35;;;;;;;4.20;2.05;;;;;;;;;;5011149;28;20030;-81
2022/02/27 05:12:02;;;;;;;5.43;2.45;;;;;;;;;;5011074;28;20052;-78
2022/02/27 05:14:28;;;;;;;6.05;2.50;;;;;;;;;;5010826;28;20101;-79
2022/02/27 05:16:54;;;;;;;5.40;2.30;;;;;;;;;;5009289;28;20118;-78
2022/02/27 05:19:20;;;;;;;6.03;2.28;;;;;;;;;;5011222;28;20026;-79
2022/02/27 05:21:46;;;;;;;4.15;2.20;;;;;;;;;;5011310;28;20057;-78
2022/02/27 05:24:12;;;;;;;4.50;2.35;;;;;;;;;;5011278;28;20029;-78
2022/02/27 05:26:38;;;;;;;6.30;3.15;;;;;;;;;;5011238;28;20470;-80
2022/02/27 05:29:04;;;;;;;5.05;2.72;;;;;;;;;;5010990;28;20042;-77
2022/02/27 05:31:31;;;;;;;5.60;2.65;;;;;;;;;;5010769;28;20026;-78
2022/02/27 05:33:57;;;;;;;4.57;2.25;;;;;;;;;;5010803;28;20179;-78
2022/02/27 05:36:23;;;;;;;5.78;3.00;;;;;;;;;;5009957;28;20403;-77
2022/02/27 05:38:49;;;;;;;5.97;2.60;;;;;;;;;;5010711;28;20505;-77
2022/02/27 05:41:15;;;;;;;6.57;2.63;;;;;;;;;;5010352;28;20055;-78
2022/02/27 05:43:42;;;;;;;7.97;2.83;;;;;;;;;;5010756;28;20076;-77
2022/02/27 05:46:08;;;;;;;4.25;2.50;;;;;;;;;;5010736;28;20144;-76
2022/02/27 05:48:34;;;;;;;4.45;2.28;;;;;;;;;;5010923;28;20489;-78
2022/02/27 05:51:00;;;;;;;5.90;2.53;;;;;;;;;;5010674;28;20033;-77
2022/02/27 05:53:26;;;;;;;5.68;2.28;;;;;;;;;;5010938;28;20037;-78
2022/02/27 05:55:56;;;;;;;5.85;2.38;;;;;;;;;;5010695;28;20402;-77
2022/02/27 05:58:23;;;;;;;5.72;2.50;;;;;;;;;;5013176;28;20017;-77
2022/02/27 06:00:50;;;;;;;5.72;2.20;;;;;;;;;;5012639;28;20032;-78
2022/02/27 06:03:16;;;;;;;5.78;2.60;;;;;;;;;;5014554;28;20026;-78
2022/02/27 06:05:42;;;;;;;4.47;2.20;;;;;;;;;;5014166;28;20033;-79
2022/02/27 06:08:08;;;;;;;4.53;2.95;;;;;;;;;;5014310;28;20018;-76
2022/02/27 06:10:34;;;;;;;4.30;2.25;;;;;;;;;;5014413;28;20099;-79
2022/02/27 06:13:01;;;;;;;5.13;2.40;;;;;;;;;;5014007;28;20018;-78
2022/02/27 06:15:27;;;;;;;5.85;2.72;;;;;;;;;;5013911;28;20034;-78
2022/02/27 06:17:53;;;;;;;4.60;2.60;;;;;;;;;;5012348;28;20115;-77
2022/02/27 06:20:19;;;;;;;4.90;2.38;;;;;;;;;;5014529;28;20025;-78
2022/02/27 06:22:46;;;;;;;5.95;2.58;;;;;;;;;;5013876;28;20053;-78
2022/02/27 06:25:13;;;;;;;4.88;2.40;;;;;;;;;;5014059;28;20034;-78
2022/02/27 06:27:42;;;;;;;5.15;2.58;;;;;;;;;;5013833;28;20057;-78
2022/02/27 06:30:12;;;;;;;5.32;2.40;;;;;;;;;;5013960;28;20068;-77
2022/02/27 06:32:38;;;;;;;5.45;2.72;;;;;;;;;;5013543;28;20149;-78
2022/02/27 06:35:08;;;;;;;8.25;2.72;;;;;;;;;;5012601;28;20405;-77
2022/02/27 06:37:34;;;;;;;5.40;2.33;;;;;;;;;;5013652;28;20033;-77
2022/02/27 06:40:00;;;;;;;4.63;2.20;;;;;;;;;;5013436;28;20034;-78
2022/02/27 06:42:26;;;;;;;4.50;2.15;;;;;;;;;;5013735;28;20018;-78
2022/02/27 06:44:52;;;;;;;5.80;2.20;;;;;;;;;;5013654;28;20030;-77
2022/02/27 06:47:19;;;;;;;5.85;2.55;;;;;;;;;;5014047;28;20556;-78
2022/02/27 06:49:45;;;;;;;3.97;2.17;;;;;;;;;;5013343;28;20445;-78
2022/02/27 06:52:11;;;;;;;5.55;2.70;;;;;;;;;;5013039;28;20037;-78
2022/02/27 06:54:37;;;;;;;5.55;2.38;;;;;;;;;;5013439;28;20029;-80
2022/02/27 06:57:03;;;;;;;4.57;2.15;;;;;;;;;;5013192;28;20037;-78
2022/02/27 06:59:29;;;;;;;4.65;2.20;;;;;;;;;;5013396;28;20042;-78
2022/02/27 07:01:55;;;;;;;6.88;2.50;;;;;;;;;;5011821;28;20092;-80
2022/02/27 07:04:21;;;;;;;3.53;1.85;;;;;;;;;;5012393;28;20124;-80
2022/02/27 07:06:47;;;;;;;6.20;2.10;;;;;;;;;;5011185;28;20394;-79
2022/02/27 07:09:14;;;;;;;6.30;2.40;;;;;;;;;;5011800;28;20045;-78
2022/02/27 07:11:44;;;;;;;3.03;1.88;;;;;;;;;;5012955;28;20374;-79
2022/02/27 07:14:10;;;;;;;3.67;2.13;;;;;;;;;;5013097;28;20026;-79
2022/02/27 07:16:36;;;;;;;5.13;2.42;;;;;;;;;;5013071;28;20026;-78
2022/02/27 07:19:02;;;;;;;6.38;2.85;;;;;;;;;;5012748;28;20033;-78
2022/02/27 07:21:28;;;;;;;5.28;2.22;;;;;;;;;;5013076;28;20033;-78
2022/02/27 07:23:54;;;;;;;3.60;2.05;;;;;;;;;;5012263;28;20445;-79
2022/02/27 07:26:20;;;;;;;3.15;1.63;;;;;;;;;;5013239;28;20378;-79
2022/02/27 07:28:46;;;;;;;5.65;2.45;;;;;;;;;;5012587;28;20044;-78
2022/02/27 07:31:12;;;;;;;4.95;1.83;;;;;;;;;;5012895;28;20025;-77
2022/02/27 07:33:38;;;;;;;4.00;1.92;;;;;;;;;;5011182;28;20030;-78
2022/02/27 07:36:04;;;;;;;5.50;2.08;;;;;;;;;;5012530;28;20532;-77
2022/02/27 07:38:30;;;;;;;2.88;1.70;;;;;;;;;;5012504;28;20061;-78
2022/02/27 07:40:56;;;;;;;3.50;1.95;;;17.50;47.80;;;;;;5012412;28;20429;-78
2022/02/27 07:43:21;;;;;;;3.65;1.85;;;17.50;48.30;;;;;;5012875;28;20022;-77
2022/02/27 07:45:47;;;;;;;3.67;1.85;;;17.50;48.20;;;;;;5012271;28;20413;-78
2022/02/27 07:48:14;;;;;;;4.32;2.17;;;17.50;48.20;;;;;;4993524;28;20030;-79
2022/02/27 07:50:40;;;;;;;5.20;1.88;;;17.50;48.20;;;;;;5010789;28;20018;-77
2022/02/27 07:53:06;;;;;;;5.88;2.17;;;17.50;48.20;;;;;;5010814;28;20025;-78
2022/02/27 07:55:32;;;;;;;4.82;2.05;;;17.50;48.20;;;;;;5010953;28;20028;-77
2022/02/27 07:57:57;;;;;;;3.92;1.80;;;17.50;48.20;;;;;;5010592;28;20022;-77
2022/02/27 08:00:23;;;;;;;4.13;2.13;;;17.50;48.20;;;;;;5010782;28;20037;-77
2022/02/27 08:02:48;;;;;;;5.70;2.22;;;17.60;48.20;;;;;;5010347;28;20038;-78
2022/02/27 08:05:14;;;;;;;4.47;1.92;;;17.60;48.20;;;;;;5012192;28;20553;-78
2022/02/27 08:07:40;;;;;;;5.35;1.80;;;17.60;48.20;;;;;;5011843;28;20030;-79
2022/02/27 08:10:06;;;;;;;4.22;1.70;;;17.60;48.20;;;;;;5012080;28;20390;-79
2022/02/27 08:12:32;;;;;;;4.65;1.73;;;17.60;48.20;;;;;;5012116;28;20045;-80
2022/02/27 08:14:58;;;;;;;4.45;1.83;;;17.60;48.10;;;;;;5011517;28;20033;-79
2022/02/27 08:17:24;;;;;;;3.55;1.60;;;17.60;48.20;;;;;;5012348;28;20097;-78
2022/02/27 08:19:49;;;;;;;5.05;1.65;;;17.70;48.20;;;;;;5011805;28;20100;-79
2022/02/27 08:22:16;;;;;;;5.15;1.98;;;17.60;48.20;;;;;;5012085;28;20290;-79
2022/02/27 08:24:42;;;;;;;3.65;1.83;;;17.60;48.20;;;;;;5011909;28;20014;-78
2022/02/27 08:27:08;;;;;;;3.47;1.42;;;17.70;48.20;;;;;;5012131;28;20122;-78
2022/02/27 08:29:33;;;;;;;3.90;1.50;;;17.70;48.20;;;;;;5011675;28;20030;-77
2022/02/27 08:31:59;;;;;;;3.83;1.63;;;17.70;48.20;;;;;;5011023;28;20511;-81
2022/02/27 08:34:27;;;;;;;5.47;1.55;;;17.70;48.10;;;;;;5011439;28;20026;-76
2022/02/27 08:36:55;;;;;;;3.88;1.63;;;17.70;48.20;;;;;;5010874;28;20076;-83
2022/02/27 08:39:20;;;;;;;6.05;1.40;;;17.70;48.10;;;;;;5011547;28;20505;-76
2022/02/27 08:41:46;;;;;;;4.30;1.40;;;17.70;48.20;;;;;;5011673;28;20084;-76
2022/02/27 08:44:12;;;;;;;3.80;1.58;;;17.80;48.30;;;;;;5011898;28;20037;-80
2022/02/27 08:46:39;;;;;;;2.88;1.50;;;17.80;48.30;;;;;;5011642;28;20033;-76
2022/02/27 08:49:06;;;;;;;5.13;1.77;;;17.80;48.30;;;;;;5010790;28;20032;-80
2022/02/27 08:51:32;;;;;;;3.90;1.80;;;17.80;48.30;;;;;;5010145;28;20065;-77
2022/02/27 08:53:58;;;;;;;4.88;1.70;;;17.80;48.40;;;;;;5009873;28;20406;-79
2022/02/27 08:56:24;;;;;;;2.88;1.60;;;17.90;48.50;;;;;;5010553;28;20022;-77
2022/02/27 08:58:50;;;;;;;3.33;1.35;;;17.90;48.50;;;;;;5009699;28;20029;-79
2022/02/27 09:01:15;;;;;;;3.80;1.70;;;17.90;48.50;;;;;;5011460;28;20200;-80
2022/02/27 09:03:41;;;;;;;4.40;1.50;;;17.90;48.50;;;;;;5010414;28;20038;-84
2022/02/27 09:06:08;;;;;;;4.05;1.50;;;17.90;48.50;;;;;;5011525;28;20086;-81
2022/02/27 09:08:34;;;;;;;7.43;1.70;;;18.00;48.50;;;;;;5010832;28;20061;-78
2022/02/27 09:11:00;;;;;;;4.22;1.50;;;18.00;48.50;;;;;;5011046;28;20473;-79
2022/02/27 09:13:26;;;;;;;2.38;1.10;;;18.00;48.50;;;;;;5011632;28;20037;-83
2022/02/27 09:15:52;;;;;;;5.05;1.63;;;18.00;48.40;;;;;;5011381;28;20026;-82
2022/02/27 09:18:17;;;;;;;3.38;1.20;;;18.00;48.40;;;;;;5011322;28;20080;-82
2022/02/27 09:20:44;;;;;;;6.00;1.50;;;18.00;48.40;;;;;;5008578;28;20449;-79
2022/02/27 09:23:10;;;;;;;4.95;1.48;;;18.00;48.40;;;;;;5010107;28;20017;-83
2022/02/27 09:25:36;;;;;;;3.53;1.10;;;18.00;48.40;;;;;;5011338;28;20496;-85
2022/02/27 09:28:02;;;;;;;3.00;1.40;;;18.10;48.40;;;;;;5011274;28;20105;-86
2022/02/27 09:30:27;;;;;;;3.47;1.38;;;18.10;48.30;;;;;;5011727;28;20535;-83
2022/02/27 09:32:53;;;;;;;4.10;1.17;;;18.10;48.30;;;;;;5014698;28;20022;-86
2022/02/27 09:35:24;;;;;;;4.95;1.40;;;18.10;48.30;;;;;;5014894;28;20088;-84
2022/02/27 09:37:50;;;;;;;5.05;1.58;;;18.10;48.30;;;;;;5012103;28;20072;-85
2022/02/27 09:40:16;;;;;;;4.93;1.85;;;18.10;48.30;;;;;;5014263;28;20096;-85
2022/02/27 09:42:43;;;;;;;5.75;1.45;;;18.10;48.30;;;;;;5014888;28;20058;-85
2022/02/27 09:45:10;;;;;;;4.85;2.10;;;18.20;48.40;;;;;;4997275;28;20077;-85
2022/02/27 09:47:37;;;;;;;6.32;3.90;;;18.20;48.40;;;;;;5015183;28;20109;-87
2022/02/27 09:50:03;;;;;;;6.57;3.15;;;18.20;48.40;;;;;;5014505;28;20065;-87
2022/02/27 09:52:28;;;;;;;6.30;3.38;;;18.20;48.50;;;;;;5015069;28;20021;-86
2022/02/27 09:54:54;;;;;;;6.75;2.83;;;18.30;48.50;;;;;;4997480;28;20032;-85
2022/02/27 09:57:22;;;;;;;7.72;3.03;;;18.30;48.50;;;;;;5014120;28;20018;-86
2022/02/27 09:59:48;;;;;;;7.50;2.70;;;18.40;48.60;;;;;;5010110;28;20373;-85
2022/02/27 10:02:14;;;;;;;5.40;2.50;;;18.40;48.70;;;;;;4996086;28;20083;-88
2022/02/27 10:04:41;;;;;;;8.93;2.85;;;18.50;48.70;;;;;;5011711;28;20022;-83
2022/02/27 10:07:15;;;;;;;5.68;2.47;;;18.50;48.70;;;;;;4996742;28;20169;-82
2022/02/27 10:09:41;;;;;;;7.50;2.83;;;18.50;48.70;;;;;;5014080;28;20064;-84
2022/02/27 10:12:23;;;;;;;5.70;1.75;;;18.60;48.80;;;;;;5012179;28;20014;-81
2022/02/27 10:14:58;;;;;;;9.57;4.65;;;18.60;48.80;;;;;;4995456;28;20053;-80
2022/02/27 10:17:43;;;;;;;11.97;6.00;;;18.70;48.90;;;;;;5013571;28;20127;-79
2022/02/27 10:20:13;;;;;;;13.02;7.63;;;18.80;49.00;;;;;;5014158;28;20501;-79
2022/02/27 10:22:42;;;;;;;13.50;9.00;;;18.80;49.00;;;;;;5009032;28;20454;-80
2022/02/27 10:25:17;;;;;;;15.27;8.38;;;18.90;49.00;;;;;;5012721;28;20065;-82
2022/02/27 10:27:47;;;;;;;;;;;19.00;49.10;;;;;;5013384;28;20022;-79
2022/02/27 10:30:22;;;;;;;10.75;6.70;;;19.00;49.00;;;;;;5013597;28;19996;-78
2022/02/27 10:33:03;;;;;;;12.95;7.38;;;19.10;49.00;;;;;;5012520;28;20046;-77
2022/02/27 10:35:50;;;;;;;10.90;6.38;;;19.10;49.00;;;;;;5012729;28;20112;-78
2022/02/27 10:38:51;;;;;;;8.95;5.60;;;19.20;49.10;;;;;;5012422;28;20025;-79
2022/02/27 10:41:21;;;;;;;10.93;5.18;;;19.20;49.00;;;;;;5009819;28;20108;-79
2022/02/27 10:43:48;;;;;;;10.02;4.97;;;19.40;49.10;;;;;;5010425;28;20056;-78
2022/02/27 10:46:18;;;;;;;10.23;4.90;;;19.40;49.10;;;;;;5012111;28;20030;-78
2022/02/27 10:48:44;;;;;;;10.13;4.30;;;19.50;49.10;;;;;;5011799;28;20030;-78
2022/02/27 10:51:15;;;;;;;6.93;4.20;;;19.50;49.00;;;;;;5012044;28;20050;-77
2022/02/27 10:53:43;;;;;;;9.25;4.38;;;19.60;49.20;;;;;;5007047;28;20844;-77
2022/02/27 10:56:11;;;;;;;10.40;4.10;;;19.60;49.20;;;;;;5012801;28;20037;-80
2022/02/27 10:58:41;;;;;;;8.40;3.90;;;19.60;49.20;;;;;;5011205;28;20383;-80
2022/02/27 11:01:09;;;;;;;6.88;3.50;;;;;;;;;;5012274;28;20029;-83
2022/02/27 11:03:36;;;;;;;9.25;3.50;;;;;;;;;;5010744;28;20142;-79
2022/02/27 11:06:02;;;;;;;9.77;3.30;;;;;;;;;;5011843;28;20026;-79
2022/02/27 11:08:29;;;;;;;7.38;3.75;;;;;;;;;;5009250;28;20105;-79
2022/02/27 11:10:55;;;;;;;9.45;4.00;;;;;;;;;;5011562;28;20101;-80
2022/02/27 11:13:22;;;;;;;8.88;3.30;;;;;;;;;;5012546;28;20026;-81
2022/02/27 11:15:50;;;;;;;7.32;3.03;;;;;;;;;;5012615;28;20382;-78
2022/02/27 11:18:17;;;;;;;9.02;3.67;;;;;;;;;;5012027;28;20022;-79
2022/02/27 11:20:43;;;;;;;5.88;3.30;;;;;;;;;;5012883;28;20030;-80
2022/02/27 11:23:10;;;;;;;11.50;3.35;;;;;;;;;;5012463;28;20080;-79
2022/02/27 11:25:36;;;;;;;6.20;2.90;;;;;;;;;;5011271;28;20044;-80
2022/02/27 11:28:14;;;;;;;7.55;3.15;;;;;;;;;;5011368;28;20100;-80
2022/02/27 11:30:41;;;;;;;8.90;2.60;;;;;;;;;;5010072;28;20034;-80
2022/02/27 11:33:08;;;;;;;6.50;2.95;;;;;;;;;;5010758;28;20033;-78
2022/02/27 11:35:41;;;;;;;5.60;3.08;;;;;;;;;;5011584;28;20482;-81
2022/02/27 11:38:13;;;;;;;5.55;3.42;;;;;;;;;;5011458;28;20051;-79
2022/02/27 11:40:43;;;;;;;6.18;2.60;;;;;;;;;;5008470;28;20042;-80
2022/02/27 11:43:09;;;;;;;6.82;2.97;;;;;;;;;;4998538;28;20026;-82
2022/02/27 11:45:38;;;;;;;7.80;3.03;;;;;;;;;;5007646;28;20041;-80
2022/02/27 11:48:05;;;;;;;8.10;3.50;;;;;;;;;;5010660;28;20050;-80
2022/02/27 11:50:35;;;;;;;6.93;2.35;;;;;;;;;;5011474;28;20037;-82
2022/02/27 11:53:02;;;;;;;8.98;2.90;;;;;;;;;;5012512;28;20092;-84
2022/02/27 11:55:41;;;;;;;10.05;3.45;;;;;;;;;;5010798;28;20449;-83
2022/02/27 11:58:27;;;;;;;7.95;3.00;;;;;;;;;;5012642;28;20030;-81
2022/02/27 12:00:53;;;;;;;3.88;2.35;;;;;;;;;;5001088;28;20038;-81
2022/02/27 12:03:31;;;;;;;4.60;2.00;;;;;;;;;;5001961;28;20597;-83
2022/02/27 12:06:05;;;;;;;6.07;2.25;;;;;;;;;;5001351;28;20048;-85
2022/02/27 12:08:44;;;;;;;5.38;2.08;;;;;;;;;;5011265;28;20026;-81
2022/02/27 12:11:25;;;;;;;5.30;2.30;;;;;;;;;;4995339;28;20057;-82
2022/02/27 12:13:56;;;;;;;4.40;2.05;;;;;;;;;;5003154;28;20077;-81
2022/02/27 12:16:36;;;;;;;4.20;1.85;;;;;;;;;;5007405;28;20493;-81
2022/02/27 12:19:03;;;;;;;7.40;2.05;;;;;;;;;;5004658;28;20045;-78
2022/02/27 12:21:33;;;;;;;3.30;1.90;;;;;;;;;;5007763;28;20109;-79
2022/02/27 12:24:06;;;;;;;6.70;1.55;;;;;;;;;;5001181;28;20025;-80
2022/02/27 12:26:36;;;;;;;3.22;1.90;;;;;;;;;;4997717;28;20045;-79
2022/02/27 12:29:02;;;;;;;5.78;1.63;;;;;;;;;;5007677;28;20121;-79
2022/02/27 12:31:32;;;;;;;3.17;1.95;;;;;;;;;;4997284;28;20181;-79
2022/02/27 12:33:59;;;;;;;5.70;2.05;;;;;;;;;;5011124;28;20026;-81
2022/02/27 12:36:26;;;;;;;5.78;1.85;;;;;;;;;;4998270;28;20022;-79
2022/02/27 12:39:04;;;;;;;3.45;1.65;;;;;;;;;;5007016;28;20034;-79
2022/02/27 12:41:32;;;;;;;3.70;1.60;;;;;;;;;;4997146;28;20045;-79
2022/02/27 12:43:58;;;;;;;3.45;1.77;;;;;;;;;;5006615;28;20026;-79
2022/02/27 12:46:24;;;;;;;5.43;1.65;;;;;;;;;;5005508;28;20034;-81
2022/02/27 12:51:37;;;;;;;6.32;1.38;;;;;;;;;;5010466;28;20044;-81
2022/02/27 12:54:09;;;;;;;4.55;2.10;;;;;;;;;;5009104;28;20096;-79
2022/02/27 12:56:35;;;;;;;6.78;2.35;;;;;;;;;;5013744;28;20026;-83
2022/02/27 12:59:01;;;;;;;3.88;1.75;;;;;;;;;;5012276;28;20057;-80
2022/02/27 13:01:31;;;;;;;6.20;1.70;;;;;;;;;;5010615;28;20053;-80
2022/02/27 13:04:03;;;;;;;2.75;1.50;;;;;;;;;;5005232;28;20056;-81
2022/02/27 13:06:29;;;;;;;3.22;1.73;;;;;;;;;;5005696;28;20026;-80
2022/02/27 13:08:56;;;;;;;7.25;1.75;;;;;;;;;;5008347;28;20037;-80
2022/02/27 13:11:38;;;;;;;4.38;1.20;;;;;;;;;;4995575;28;20076;-80
2022/02/27 13:14:04;;;;;;;6.55;1.80;;;;;;;;;;4999669;28;20030;-82
2022/02/27 13:16:31;;;;;;;6.40;1.48;;;;;;;;;;5006535;28;20026;-82
2022/02/27 13:18:57;;;;;;;3.72;1.50;;;;;;;;;;5008197;28;20445;-81
2022/02/27 13:21:24;;;;;;;4.80;2.35;;;;;;;;;;4997471;28;20062;-79
2022/02/27 13:24:00;;;;;;;6.30;1.38;;;;;;;;;;5002506;28;20030;-82
2022/02/27 13:26:28;;;;;;;2.63;1.20;;;;;;;;;;5002324;28;20088;-81
2022/02/27 13:28:55;;;;;;;4.07;1.60;;;;;;;;;;5010303;28;20038;-81
2022/02/27 13:31:22;;;;;;;7.03;1.63;;;;;;;;;;5010666;28;20104;-82
2022/02/27 13:33:49;;;;;;;9.30;1.60;;;;;;;;;;5010204;28;20062;-80
2022/02/27 13:36:15;;;;;;;3.50;0.90;;;;;;;;;;5006411;28;20065;-80
2022/02/27 13:38:41;;;;;;;5.40;0.98;;;;;;;;;;5008249;28;20034;-82
2022/02/27 13:41:07;;;;;;;4.00;1.15;;;;;;;;;;5009927;28;20033;-81
2022/02/27 13:43:38;;;;;;;5.07;2.00;;;;;;;;;;5007289;28;20109;-81
2022/02/27 13:46:09;;;;;;;3.97;1.25;;;;;;;;;;5009849;28;20056;-82
2022/02/27 13:48:37;;;;;;;7.40;1.65;;;;;;;;;;5011010;28;20026;-81
2022/02/27 13:51:04;;;;;;;4.85;1.38;;;;;;;;;;5013608;28;20017;-81
2022/02/27 13:53:31;;;;;;;4.55;1.23;;;;;;;;;;5013327;28;20113;-82
2022/02/27 13:56:13;;;;;;;3.65;1.20;;;25.50;38.50;;;;;;5013621;28;20026;-82
2022/02/27 13:58:40;;;;;;;9.80;2.20;;;25.80;39.40;;;;;;5009231;28;20061;-81
2022/02/27 14:01:13;;;;;;;11.32;2.20;;;25.70;39.70;;;;;;5009975;28;20026;-84
2022/02/27 14:03:41;;;;;;;5.68;2.00;;;25.60;40.20;;;;;;5007145;28;20037;-82
2022/02/27 14:06:08;;;;;;;4.70;2.10;;;25.50;40.40;;;;;;5009585;28;20022;-82
2022/02/27 14:08:37;;;;;;;6.07;1.70;;;25.50;40.60;;;;;;5009727;28;20026;-81
2022/02/27 14:11:05;;;;;;;7.18;1.67;;;25.40;40.80;;;;;;5009153;28;20026;-80
2022/02/27 14:13:32;;;;;;;4.88;1.33;;;25.30;40.90;;;;;;5007252;28;20107;-80